Buras, LA (70041)

5:17 AM CDT on May 22, 2015 (GMT -0500)
Boothville | | Change Station
CLOSE
Current Station
Airport
Location: Boothville,
Elevation: 0 ft
Nearby Weather Stations

Elev 0 ft 29.33 °N, 89.41 °W | Updated 2 minutes ago

Overcast
Overcast
75 °F
Feels Like 75 °F
N
12
Wind Variable Wind from NE
Gusts 21 mph

Today
High -- | Low -- °F
--% Chance of Precip.
Yesterday
High -- | Low -- °F
Precip. -- in
6:02 AM 7:47 PM
Waxing Crescent, 20% visible
Pressure 30.08 in
Visibility 7.0 miles
Clouds Mostly Cloudy 1400 ft
Mostly Cloudy 1900 ft
Mostly Cloudy 6500 ft
Dew Point 71 °F
Humidity 87%
Rainfall 0.01 in
Snow Depth Not available.
UV 0 out of 12
Pollen 4.10 out of 12
Air Quality Not available.
Flu Activity Sporadic
SPECI KBVE 221015Z AUTO 04010G18KT 7SM -RA BKN014 BKN019 BKN065 24/22 A3008 RMK AO2 RAB13 P0000 T02390217

More Conditions Fewer Conditions

Pressure 30.08 in
Visibility 7.0 miles
Clouds Mostly Cloudy 1400 ft
Mostly Cloudy 1900 ft
Mostly Cloudy 6500 ft
Dew Point 71 °F
Humidity 87%
Rainfall 0.01 in
Snow Depth Not available.
UV 0 out of 12
Pollen 4.10 out of 12
Air Quality Not available.
Flu Activity Sporadic
SPECI KBVE 221015Z AUTO 04010G18KT 7SM -RA BKN014 BKN019 BKN065 24/22 A3008 RMK AO2 RAB13 P0000 T02390217

More Conditions Fewer Conditions

10-Day Weather Forecast

Almanac

Astronomy

May. 22, 2015 Rise Set
Actual Time
Civil Twilight
Nautical Twilight
Astronomical Twilight
Moon
Length of Visible Light
Length of Day
Tomorrow will be .
, % of the Moon is Illuminated

Today's Extremes

State Highs State Lows

Community

WunderPhotos

Upload Photos

1,823,197 photos uploaded!

WunderBlogs® & News

Nearby

Air Quality

  Air Quality AQ Index Pollutant
Not available.

Snow Depth

Station Depth Elevation

Earthquake Activity

City Distance Mag. Time & Date
Minimum magnitude displayed is 2.5.

Coastal Water Temperatures

Place Temperature

Stations

Nearby Weather Stations

Station Location Temp. Windchill Dew Point Humidity Wind Precip. Elev Updated Type